Time;durP1;ratioP1;P1;durP2;ratioP2;P2;SDS_P1;SDS_P2;PMS_P1;PMS_P2;Temp;Humidity;BMP_temperature;BMP_pressure;BME280_temperature;BME280_humidity;BME280_pressure;Samples;Min_cycle;Max_cycle;Signal;HPM_P1;HPM_P2
2023/04/23 00:01:17;;;;;;;10.98;6.38;;;;;;;-145.41;100.00;58600.66;4983653;28;20476;-76
2023/04/23 00:03:43;;;;;;;9.32;6.82;;;;;;;-145.41;100.00;58600.66;4964874;28;20043;-76
2023/04/23 00:06:09;;;;;;;8.90;5.68;;;;;;;-145.41;100.00;58600.66;4983933;28;20037;-76
2023/04/23 00:08:39;;;;;;;9.45;5.65;;;;;;;-145.41;100.00;58600.66;4984922;28;20042;-77
2023/04/23 00:11:05;;;;;;;9.90;5.90;;;;;;;-145.41;100.00;58600.66;4981058;28;20050;-76
2023/04/23 00:13:31;;;;;;;11.23;6.43;;;;;;;-145.41;100.00;58600.66;4984832;28;20046;-76
2023/04/23 00:15:56;;;;;;;10.68;6.68;;;;;;;-145.41;100.00;58600.66;4984724;28;20040;-76
2023/04/23 00:18:22;;;;;;;8.90;5.57;;;;;;;-145.41;100.00;58600.66;4981076;28;20077;-76
2023/04/23 00:20:47;;;;;;;10.30;4.95;;;;;;;-145.41;100.00;58600.66;4984028;28;20041;-76
2023/04/23 00:23:13;;;;;;;9.80;6.30;;;;;;;-145.41;100.00;58600.66;4980905;28;20035;-76
2023/04/23 00:25:38;;;;;;;12.15;6.22;;;;;;;-145.41;100.00;58600.66;4987756;28;20539;-76
2023/04/23 00:28:03;;;;;;;10.20;6.28;;;;;;;-145.41;100.00;58600.66;4980989;28;20058;-76
2023/04/23 00:30:29;;;;;;;8.77;5.88;;;;;;;-145.41;100.00;58600.66;4987768;28;20058;-76
2023/04/23 00:32:54;;;;;;;10.25;5.88;;;;;;;-145.41;100.00;58600.66;4983747;28;20038;-76
2023/04/23 00:35:20;;;;;;;8.60;5.78;;;;;;;-145.41;100.00;58600.66;4973765;28;20489;-76
2023/04/23 00:37:45;;;;;;;8.90;5.72;;;;;;;-145.41;100.00;58600.66;4983643;28;20089;-76
2023/04/23 00:40:11;;;;;;;9.07;5.25;;;;;;;-145.41;100.00;58600.66;4981162;28;20035;-76
2023/04/23 00:42:38;;;;;;;11.10;5.57;;;;;;;-145.41;100.00;58600.66;4983231;28;20417;-76
2023/04/23 00:45:07;;;;;;;10.35;4.88;;;;;;;-145.41;100.00;58600.66;4969949;28;20034;-76
2023/04/23 00:47:33;;;;;;;11.60;6.50;;;;;;;-145.41;100.00;58600.66;4982207;28;20050;-76
2023/04/23 00:49:59;;;;;;;10.82;5.70;;;;;;;-145.41;100.00;58600.66;4964621;28;20034;-76
2023/04/23 00:52:24;;;;;;;10.23;5.90;;;;;;;-145.41;100.00;58600.66;4983598;28;20101;-76
2023/04/23 00:54:49;;;;;;;10.93;5.72;;;;;;;-145.41;100.00;58600.66;4983982;28;20485;-76
2023/04/23 00:57:15;;;;;;;11.77;6.65;;;;;;;-145.41;100.00;58600.66;4982532;28;20077;-76
2023/04/23 00:59:41;;;;;;;9.60;5.78;;;;;;;-145.41;100.00;58600.66;4966526;28;20082;-76
2023/04/23 01:02:06;;;;;;;7.75;4.97;;;;;;;-145.41;100.00;58600.66;4964119;28;20092;-76
2023/04/23 01:04:33;;;;;;;9.45;5.10;;;;;;;-145.41;100.00;58600.66;4982946;28;21135;-76
2023/04/23 01:06:59;;;;;;;8.15;5.13;;;;;;;-145.41;100.00;58600.66;4984048;28;20113;-76
2023/04/23 01:09:26;;;;;;;8.48;5.40;;;;;;;-145.41;100.00;58600.66;4982798;28;20035;-75
2023/04/23 01:11:52;;;;;;;9.38;6.05;;;;;;;-145.41;100.00;58600.66;4966004;28;20042;-76
2023/04/23 01:14:18;;;;;;;10.82;5.53;;;;;;;-145.41;100.00;58600.66;4980621;28;20029;-76
2023/04/23 01:16:43;;;;;;;9.48;5.55;;;;;;;-145.41;100.00;58600.66;4974220;28;20030;-76
2023/04/23 01:19:11;;;;;;;9.52;5.38;;;;;;;-145.41;100.00;58600.66;4980019;28;20090;-76
2023/04/23 01:21:40;;;;;;;11.15;6.10;;;;;;;-145.41;100.00;58600.66;4980243;28;20035;-76
2023/04/23 01:24:06;;;;;;;9.43;5.63;;;;;;;-145.41;100.00;58600.66;4983799;28;20031;-76
2023/04/23 01:26:33;;;;;;;8.98;5.70;;;;;;;-145.41;100.00;58600.66;4969099;28;20058;-75
2023/04/23 01:28:59;;;;;;;8.13;5.25;;;;;;;-145.41;100.00;58600.66;4967796;28;20037;-76
2023/04/23 01:31:26;;;;;;;8.95;5.25;;;;;;;-145.41;100.00;58600.66;4981388;28;20115;-76
2023/04/23 01:33:56;;;;;;;9.63;5.68;;;;;;;-145.41;100.00;58600.66;4964768;28;20117;-75
2023/04/23 01:36:22;;;;;;;10.02;5.60;;;;;;;-145.41;100.00;58600.66;4982494;28;20122;-76
2023/04/23 01:38:50;;;;;;;9.07;5.45;;;;;;;-145.41;100.00;58600.66;4980827;28;20073;-75
2023/04/23 01:41:16;;;;;;;8.50;5.93;;;;;;;-145.41;100.00;58600.66;4965433;28;20437;-75
2023/04/23 01:43:42;;;;;;;9.48;6.45;;;;;;;-145.41;100.00;58600.66;4982644;28;20046;-76
2023/04/23 01:46:08;;;;;;;8.68;6.10;;;;;;;-145.41;100.00;58600.66;4965633;28;20133;-76
2023/04/23 01:48:34;;;;;;;9.23;6.25;;;;;;;-145.41;100.00;58600.66;4980348;28;20034;-76
2023/04/23 01:50:59;;;;;;;11.68;5.82;;;;;;;-145.41;100.00;58600.66;4983204;28;20084;-76
2023/04/23 01:53:25;;;;;;;7.55;4.97;;;;;;;-145.41;100.00;58600.66;4983519;28;20064;-75
2023/04/23 01:55:51;;;;;;;10.13;5.90;;;;;;;-145.41;100.00;58600.66;4964234;28;20415;-75
2023/04/23 01:58:17;;;;;;;9.68;6.13;;;;;;;-145.41;100.00;58600.66;4966163;28;20117;-76
2023/04/23 02:00:42;;;;;;;9.55;6.20;;;;;;;-145.41;100.00;58600.66;4982045;28;20455;-76
2023/04/23 02:03:08;;;;;;;14.00;6.38;;;;;;;-145.41;100.00;58600.66;5009309;23;20053;-72
2023/04/23 02:05:35;;;;;;;10.02;6.20;;;;;;;-145.41;100.00;58600.66;4981966;28;20030;-71
2023/04/23 02:08:00;;;;;;;9.70;5.55;;;;;;;-145.41;100.00;58600.66;5002454;28;20056;-71
2023/04/23 02:10:26;;;;;;;9.63;6.07;;;;;;;-145.41;100.00;58600.66;4981897;28;20497;-72
2023/04/23 02:12:51;;;;;;;10.45;6.63;;;;;;;-145.41;100.00;58600.66;4991019;28;20038;-71
2023/04/23 02:15:18;;;;;;;10.65;6.28;;;;;;;-145.41;100.00;58600.66;4963077;28;20075;-71
2023/04/23 02:17:44;;;;;;;10.68;6.53;;;;;;;-145.41;100.00;58600.66;4982508;28;20034;-71
2023/04/23 02:20:10;;;;;;;10.48;6.53;;;;;;;-145.41;100.00;58600.66;4981649;28;20145;-71
2023/04/23 02:22:38;;;;;;;10.25;6.03;;;;;;;-145.41;100.00;58600.66;4982356;28;20034;-72
2023/04/23 02:25:05;;;;;;;8.98;5.85;;;;;;;-145.41;100.00;58600.66;4986590;28;20038;-72
2023/04/23 02:27:32;;;;;;;9.73;6.63;;;;;;;-145.41;100.00;58600.66;4984691;28;20084;-71
2023/04/23 02:29:57;;;;;;;9.05;6.22;;;;;;;-145.41;100.00;58600.66;4985055;28;20042;-72
2023/04/23 02:32:24;;;;;;;9.50;6.47;;;;;;;-145.41;100.00;58600.66;4984374;28;20181;-71
2023/04/23 02:34:49;;;;;;;10.35;5.80;;;;;;;-145.41;100.00;58600.66;4968252;28;20549;-72
2023/04/23 02:37:15;;;;;;;10.43;5.97;;;;;;;-145.41;100.00;58600.66;4983858;28;20122;-72
2023/04/23 02:39:40;;;;;;;8.30;5.80;;;;;;;-145.41;100.00;58600.66;4985389;28;20400;-71
2023/04/23 02:42:08;;;;;;;8.77;5.57;;;;;;;-145.41;100.00;58600.66;4973861;28;20102;-72
2023/04/23 02:44:33;;;;;;;10.63;6.30;;;;;;;-145.41;100.00;58600.66;4968698;28;20034;-71
2023/04/23 02:46:59;;;;;;;11.02;6.40;;;;;;;-145.41;100.00;58600.66;4985207;28;20069;-72
2023/04/23 02:49:24;;;;;;;9.23;6.53;;;;;;;-145.41;100.00;58600.66;4982747;28;20047;-71
2023/04/23 02:51:50;;;;;;;11.90;6.22;;;;;;;-145.41;100.00;58600.66;4976829;28;20050;-72
2023/04/23 02:54:15;;;;;;;10.90;6.10;;;;;;;-145.41;100.00;58600.66;4965072;28;20037;-71
2023/04/23 02:56:41;;;;;;;10.52;6.10;;;;;;;-145.41;100.00;58600.66;4986304;28;20042;-72
2023/04/23 02:59:07;;;;;;;9.20;6.38;;;;;;;-145.41;100.00;58600.66;4973181;28;20118;-71
2023/04/23 03:01:32;;;;;;;7.72;5.32;;;;;;;-145.41;100.00;58600.66;4958528;28;20390;-72
2023/04/23 03:03:59;;;;;;;10.85;6.15;;;;;;;-145.41;100.00;58600.66;4976207;28;20041;-71
2023/04/23 03:06:24;;;;;;;12.07;7.07;;;;;;;-145.41;100.00;58600.66;4982644;28;20027;-72
2023/04/23 03:08:50;;;;;;;12.27;6.15;;;;;;;-145.41;100.00;58600.66;4985384;28;20054;-71
2023/04/23 03:11:15;;;;;;;9.25;5.97;;;;;;;-145.41;100.00;58600.66;4982621;28;20464;-72
2023/04/23 03:13:40;;;;;;;10.25;6.25;;;;;;;-145.41;100.00;58600.66;4982824;28;20035;-71
2023/04/23 03:16:06;;;;;;;10.13;6.43;;;;;;;-145.41;100.00;58600.66;4985363;28;20404;-71
2023/04/23 03:18:32;;;;;;;9.57;6.60;;;;;;;-145.41;100.00;58600.66;4965532;28;20058;-72
2023/04/23 03:20:57;;;;;;;11.25;7.25;;;;;;;-145.41;100.00;58600.66;4984691;28;20125;-71
2023/04/23 03:23:23;;;;;;;9.63;6.93;;;;;;;-145.41;100.00;58600.66;4971340;28;20132;-71
2023/04/23 03:25:49;;;;;;;11.27;6.70;;;;;;;-145.41;100.00;58600.66;4968404;28;20089;-71
2023/04/23 03:28:14;;;;;;;12.18;6.88;;;;;;;-145.41;100.00;58600.66;4974126;28;20489;-72
2023/04/23 03:30:39;;;;;;;12.25;5.65;;;;;;;-145.41;100.00;58600.66;4983917;28;20034;-71
2023/04/23 03:33:05;;;;;;;8.40;6.22;;;;;;;-145.41;100.00;58600.66;4974544;28;20500;-71
2023/04/23 03:35:30;;;;;;;10.52;6.43;;;;;;;-145.41;100.00;58600.66;4984403;28;20034;-71
2023/04/23 03:37:59;;;;;;;9.73;6.45;;;;;;;-145.41;100.00;58600.66;4966223;28;20049;-71
2023/04/23 03:40:25;;;;;;;8.98;5.82;;;;;;;-145.41;100.00;58600.66;4966509;28;20038;-71
2023/04/23 03:42:53;;;;;;;14.75;7.22;;;;;;;-145.41;100.00;58600.66;4969095;28;20046;-71
2023/04/23 03:45:26;;;;;;;10.90;7.07;;;;;;;-145.41;100.00;58600.66;4972534;28;20038;-72
2023/04/23 03:47:52;;;;;;;8.93;6.45;;;;;;;-145.41;100.00;58600.66;4963185;28;20122;-71
2023/04/23 03:50:18;;;;;;;10.10;6.65;;;;;;;-145.41;100.00;58600.66;4975382;28;20034;-72
2023/04/23 03:52:50;;;;;;;8.30;6.45;;;;;;;-145.41;100.00;58600.66;4973560;28;20031;-72
2023/04/23 03:55:31;;;;;;;12.63;7.40;;;;;;;-145.41;100.00;58600.66;4972336;28;20042;-72
2023/04/23 03:58:00;;;;;;;9.85;6.72;;;;;;;-145.41;100.00;58600.66;4974188;28;20038;-72
2023/04/23 04:00:29;;;;;;;9.95;6.57;;;;;;;-145.41;100.00;58600.66;4982081;28;20358;-71
2023/04/23 04:02:55;;;;;;;11.90;6.43;;;;;;;-145.41;100.00;58600.66;4972208;28;20041;-72
2023/04/23 04:05:22;;;;;;;13.45;7.50;;;;;;;-145.41;100.00;58600.66;4982005;28;20031;-71
2023/04/23 04:07:47;;;;;;;9.30;6.45;;;;;;;-145.41;100.00;58600.66;4983959;28;20042;-72
2023/04/23 04:10:12;;;;;;;11.65;7.18;;;;;;;-145.41;100.00;58600.66;4965034;28;20406;-71
2023/04/23 04:12:38;;;;;;;10.57;6.38;;;;;;;-145.41;100.00;58600.66;4968287;28;20543;-71
2023/04/23 04:15:08;;;;;;;9.60;6.75;;;;;;;-145.41;100.00;58600.66;4982836;28;20062;-72
2023/04/23 04:17:33;;;;;;;9.65;6.05;;;;;;;-145.41;100.00;58600.66;4982938;28;20084;-72
2023/04/23 04:19:58;;;;;;;11.07;6.60;;;;;;;-145.41;100.00;58600.66;4982706;28;20048;-72
2023/04/23 04:22:24;;;;;;;9.85;6.82;;;;;;;-145.41;100.00;58600.66;4982593;28;20038;-72
2023/04/23 04:24:50;;;;;;;10.07;6.15;;;;;;;-145.41;100.00;58600.66;4982681;28;20034;-71
2023/04/23 04:27:16;;;;;;;10.10;6.40;;;;;;;-145.41;100.00;58600.66;4983315;28;20398;-72
2023/04/23 04:29:42;;;;;;;11.70;7.22;;;;;;;-145.41;100.00;58600.66;4983480;28;20030;-72
2023/04/23 04:32:08;;;;;;;12.63;6.25;;;;;;;-145.41;100.00;58600.66;4982113;28;20611;-71
2023/04/23 04:34:35;;;;;;;9.15;6.50;;;;;;;-145.41;100.00;58600.66;4978372;28;20038;-72
2023/04/23 04:37:00;;;;;;;10.93;6.07;;;;;;;-145.41;100.00;58600.66;4983536;28;20512;-72
2023/04/23 04:39:26;;;;;;;11.05;6.88;;;;;;;-145.41;100.00;58600.66;4981230;28;20031;-72
2023/04/23 04:41:52;;;;;;;9.50;5.90;;;;;;;-145.41;100.00;58600.66;4983660;28;20045;-71
2023/04/23 04:44:18;;;;;;;9.68;6.07;;;;;;;-145.41;100.00;58600.66;4981029;28;20058;-72
2023/04/23 04:46:43;;;;;;;8.25;5.80;;;;;;;-145.41;100.00;58600.66;4980511;28;20042;-72
2023/04/23 04:49:10;;;;;;;10.68;6.78;;;;;;;-145.41;100.00;58600.66;4983761;28;20089;-72
2023/04/23 04:51:36;;;;;;;12.85;6.68;;;;;;;-145.41;100.00;58600.66;4980288;28;20542;-72
2023/04/23 04:54:01;;;;;;;10.57;6.10;;;;;;;-145.41;100.00;58600.66;4976692;28;20035;-72
2023/04/23 04:56:27;;;;;;;14.23;7.22;;;;;;;-145.41;100.00;58600.66;4984144;28;20038;-72
2023/04/23 04:58:52;;;;;;;11.63;6.18;;;;;;;-145.41;100.00;58600.66;4980295;28;20039;-72
2023/04/23 05:01:19;;;;;;;11.32;6.38;;;;;;;-145.41;100.00;58600.66;4984005;28;20046;-72
2023/04/23 05:03:45;;;;;;;11.25;6.78;;;;;;;-145.41;100.00;58600.66;4980569;28;20047;-72
2023/04/23 05:06:10;;;;;;;9.68;5.95;;;;;;;-145.41;100.00;58600.66;4983534;28;20109;-72
2023/04/23 05:08:35;;;;;;;9.13;6.57;;;;;;;-145.41;100.00;58600.66;4980934;28;20043;-72
2023/04/23 05:11:02;;;;;;;10.55;7.68;;;;;;;-145.41;100.00;58600.66;4980779;28;20512;-72
2023/04/23 05:13:28;;;;;;;8.95;5.75;;;;;;;-145.41;100.00;58600.66;4982905;28;20182;-72
2023/04/23 05:15:53;;;;;;;7.03;5.68;;;;;;;-145.41;100.00;58600.66;4981337;28;20071;-72
2023/04/23 05:18:19;;;;;;;8.45;5.72;;;;;;;-145.41;100.00;58600.66;4982763;28;20121;-72
2023/04/23 05:20:44;;;;;;;9.35;6.03;;;;;;;-145.41;100.00;58600.66;4981204;28;20114;-72
2023/04/23 05:23:10;;;;;;;8.75;5.55;;;;;;;-145.41;100.00;58600.66;4982430;28;20035;-72
2023/04/23 05:25:35;;;;;;;8.95;5.80;;;;;;;-145.41;100.00;58600.66;4969432;28;20549;-72
2023/04/23 05:28:01;;;;;;;8.93;5.65;;;;;;;-145.41;100.00;58600.66;4982358;28;20521;-72
2023/04/23 05:30:26;;;;;;;7.97;5.57;;;;;;;-145.41;100.00;58600.66;4981495;28;20502;-72
2023/04/23 05:32:52;;;;;;;7.53;5.20;;;;;;;-145.41;100.00;58600.66;4982053;28;20088;-72
2023/04/23 05:35:17;;;;;;;7.43;5.47;;;;;;;-145.41;100.00;58600.66;4981614;28;20125;-72
2023/04/23 05:37:42;;;;;;;8.77;5.20;;;;;;;-145.41;100.00;58600.66;4981848;28;20030;-72
2023/04/23 05:40:08;;;;;;;7.25;4.93;;;;;;;-145.41;100.00;58600.66;4981669;28;20098;-72
2023/04/23 05:42:35;;;;;;;8.90;5.07;;;;;;;-145.41;100.00;58600.66;4981859;28;20129;-72
2023/04/23 05:45:00;;;;;;;9.55;5.32;;;;;;;-145.41;100.00;58600.66;4981495;28;20037;-72
2023/04/23 05:47:25;;;;;;;7.40;4.35;;;;;;;-145.41;100.00;58600.66;4964936;28;20035;-72
2023/04/23 05:49:51;;;;;;;8.15;4.47;;;;;;;-145.41;100.00;58600.66;4982302;28;20532;-72
2023/04/23 05:52:17;;;;;;;8.02;4.43;;;;;;;-145.41;100.00;58600.66;4981144;28;20497;-72
2023/04/23 05:54:42;;;;;;;7.05;4.72;;;;;;;-145.41;100.00;58600.66;4983274;28;20043;-72
2023/04/23 05:57:08;;;;;;;7.40;5.43;;;;;;;-145.41;100.00;58600.66;4983529;28;20125;-72
2023/04/23 05:59:33;;;;;;;7.72;4.50;;;;;;;-145.41;100.00;58600.66;4983548;28;20116;-72
2023/04/23 06:01:59;;;;;;;8.18;5.03;;;;;;;-145.41;100.00;58600.66;4984203;28;20042;-72
2023/04/23 06:04:25;;;;;;;9.85;5.03;;;;;;;-145.41;100.00;58600.66;4986453;28;20042;-72
2023/04/23 06:06:51;;;;;;;7.70;4.93;;;;;;;-145.41;100.00;58600.66;4983959;28;20043;-72
2023/04/23 06:09:16;;;;;;;8.07;5.35;;;;;;;-145.41;100.00;58600.66;4986474;28;20038;-72
2023/04/23 06:11:41;;;;;;;8.05;4.80;;;;;;;-145.41;100.00;58600.66;4983766;28;20045;-72
2023/04/23 06:14:07;;;;;;;7.70;5.10;;;;;;;-145.41;100.00;58600.66;4985248;28;20034;-72
2023/04/23 06:16:32;;;;;;;7.25;4.85;;;;;;;-145.41;100.00;58600.66;4986801;28;20107;-72
2023/04/23 06:18:58;;;;;;;7.47;4.70;;;;;;;-145.41;100.00;58600.66;4982958;28;20035;-72
2023/04/23 06:21:24;;;;;;;8.27;5.05;;;;;;;-145.41;100.00;58600.66;4986743;28;20041;-72
2023/04/23 06:23:49;;;;;;;10.88;5.53;;;;;;;-145.41;100.00;58600.66;4982558;28;20042;-72
2023/04/23 06:26:15;;;;;;;8.10;4.60;;;;;;;-145.41;100.00;58600.66;4983005;28;20045;-72
2023/04/23 06:28:42;;;;;;;9.07;5.00;;;;;;;-145.41;100.00;58600.66;4965505;28;20026;-72
2023/04/23 06:31:26;;;;;;;8.60;5.80;;;;;;;-145.41;100.00;58600.66;4985666;28;20053;-72
2023/04/23 06:33:52;;;;;;;6.32;4.70;;;;;;;-145.41;100.00;58600.66;4983519;28;20501;-72
2023/04/23 06:36:17;;;;;;;7.00;4.50;;;;;;;-145.41;100.00;58600.66;4985970;28;20037;-71
2023/04/23 06:38:43;;;;;;;6.45;3.70;;;;;;;-145.41;100.00;58600.66;4983260;28;20034;-72
2023/04/23 06:41:09;;;;;;;6.45;3.83;;;;;;;-145.41;100.00;58600.66;4986157;28;20040;-71
2023/04/23 06:43:35;;;;;;;7.45;3.88;;;;;;;-145.41;100.00;58600.66;4982757;28;20062;-72
2023/04/23 06:46:26;;;;;;;7.50;3.60;;;;;;;-145.41;100.00;58600.66;4983005;28;20050;-72
2023/04/23 06:48:52;;;;;;;5.70;3.22;;;;;;;-145.41;100.00;58600.66;4982769;28;20433;-72
2023/04/23 06:51:17;;;;;;;6.40;3.13;;;;;;;-145.41;100.00;58600.66;4986062;28;20131;-72
2023/04/23 06:53:42;;;;;;;5.05;3.35;;;;;;;-145.41;100.00;58600.66;4982897;28;20027;-72
2023/04/23 06:56:08;;;;;;;4.93;2.60;;;;;;;-145.41;100.00;58600.66;4983260;28;20694;-72
2023/04/23 06:58:33;;;;;;;7.65;3.33;;;;;;;-145.41;100.00;58600.66;4985872;28;20030;-72
2023/04/23 07:01:06;;;;;;;6.68;2.90;;;;;;;-145.41;100.00;58600.66;4969273;28;20026;-72
2023/04/23 07:03:32;;;;;;;6.55;3.00;;;;;;;-145.41;100.00;58600.66;4964666;28;20030;-72
2023/04/23 07:05:58;;;;;;;4.40;2.63;;;;;;;-145.41;100.00;58600.66;4986060;28;20401;-72
2023/04/23 07:08:23;;;;;;;4.93;2.75;;;;;;;-145.41;100.00;58600.66;4983403;28;20057;-72
2023/04/23 07:10:48;;;;;;;4.10;2.70;;;;;;;-145.41;100.00;58600.66;4984500;28;20042;-72
2023/04/23 07:13:15;;;;;;;5.68;3.13;;;;;;;-145.41;100.00;58600.66;4983014;28;20034;-72
2023/04/23 07:15:41;;;;;;;5.65;2.95;;;;;;;-145.41;100.00;58600.66;4983701;28;20031;-72
2023/04/23 07:18:07;;;;;;;6.20;2.92;;;;;;;-145.41;100.00;58600.66;4984248;28;20130;-72
2023/04/23 07:20:33;;;;;;;5.10;3.20;;;;;;;-145.41;100.00;58600.66;4981743;28;20401;-72
2023/04/23 07:22:58;;;;;;;4.63;2.72;;;;;;;-145.41;100.00;58600.66;4984159;28;20038;-72
2023/04/23 07:25:25;;;;;;;5.25;2.85;;;;;;;-145.41;100.00;58600.66;4983052;28;20438;-72
2023/04/23 07:27:50;;;;;;;5.28;2.80;;;;;;;-145.41;100.00;58600.66;4982520;28;20042;-72
2023/04/23 07:30:16;;;;;;;4.18;2.80;;;;;;;-145.41;100.00;58600.66;4983276;28;20386;-72
2023/04/23 07:32:42;;;;;;;8.43;2.38;;;;;;;-145.41;100.00;58600.66;4984191;28;20035;-72
2023/04/23 07:35:09;;;;;;;5.00;2.80;;;;;;;-145.41;100.00;58600.66;4983066;28;20597;-72
2023/04/23 07:37:35;;;;;;;4.13;2.30;;;;;;;-145.41;100.00;58600.66;4982453;28;20485;-72
2023/04/23 07:40:01;;;;;;;4.85;2.53;;;;;;;-145.41;100.00;58600.66;4983756;28;20046;-72
2023/04/23 07:42:26;;;;;;;3.65;2.55;;;;;;;-145.41;100.00;58600.66;4984659;28;20038;-72
2023/04/23 07:44:52;;;;;;;4.55;2.83;;;;;;;-145.41;100.00;58600.66;4982183;28;20041;-72
2023/04/23 07:47:17;;;;;;;4.38;2.72;;;;;;;-145.41;100.00;58600.66;4984969;28;20485;-72
2023/04/23 07:49:42;;;;;;;4.68;2.83;;;;;;;-145.41;100.00;58600.66;4981629;28;20516;-72
2023/04/23 07:52:08;;;;;;;5.30;2.90;;;;;;;-145.41;100.00;58600.66;4984924;28;20038;-72
2023/04/23 07:54:33;;;;;;;5.57;3.20;;;;;;;-145.41;100.00;58600.66;4982509;28;20042;-72
2023/04/23 07:56:58;;;;;;;4.82;2.50;;;;;;;-145.41;100.00;58600.66;4984975;28;20049;-73
2023/04/23 07:59:24;;;;;;;6.00;2.90;;;;;;;-145.41;100.00;58600.66;4981301;28;20062;-72
2023/04/23 08:01:49;;;;;;;4.50;2.95;;;;;;;-145.41;100.00;58600.66;4982425;28;20125;-72
2023/04/23 08:04:15;;;;;;;5.00;2.72;;;;;;;-145.41;100.00;58600.66;4977460;28;20039;-72
2023/04/23 08:06:40;;;;;;;5.93;2.60;;;;;;;-145.41;100.00;58600.66;4983415;28;20030;-72
2023/04/23 08:09:06;;;;;;;4.65;2.50;;;;;;;-145.41;100.00;58600.66;4981208;28;20099;-72
2023/04/23 08:11:32;;;;;;;3.85;2.63;;;;;;;-145.41;100.00;58600.66;4984516;28;20077;-72
2023/04/23 08:13:57;;;;;;;4.63;2.60;;;;;;;-145.41;100.00;58600.66;4983910;28;20026;-72
2023/04/23 08:16:22;;;;;;;5.28;2.80;;;;;;;-145.41;100.00;58600.66;4981767;28;20523;-72
2023/04/23 08:18:48;;;;;;;4.13;2.47;;;;;;;-145.41;100.00;58600.66;4983972;28;20484;-72
2023/04/23 08:21:13;;;;;;;5.28;2.70;;;;;;;-145.41;100.00;58600.66;4980947;28;20481;-72
2023/04/23 08:23:38;;;;;;;5.45;2.42;;;;;;;-145.41;100.00;58600.66;4981387;28;20559;-72
2023/04/23 08:26:04;;;;;;;5.47;2.65;;;;;;;-145.41;100.00;58600.66;4983309;28;20521;-72
2023/04/23 08:28:29;;;;;;;6.30;2.75;;;;;;;-145.41;100.00;58600.66;4983677;28;20045;-72
2023/04/23 08:30:55;;;;;;;6.28;3.00;;;;;;;-145.41;100.00;58600.66;4980343;28;20030;-72
2023/04/23 08:33:20;;;;;;;5.03;2.67;;;;;;;-145.41;100.00;58600.66;4983535;28;20034;-72
2023/04/23 08:35:46;;;;;;;3.80;2.40;;;;;;;-145.41;100.00;58600.66;4981839;28;20109;-72
2023/04/23 08:38:11;;;;;;;4.75;2.60;;;;;;;-145.41;100.00;58600.66;4983287;28;20070;-72
2023/04/23 08:40:37;;;;;;;5.55;2.65;;;;;;;-145.41;100.00;58600.66;4978919;28;20035;-72
2023/04/23 08:43:14;;;;;;;5.85;2.80;;;;;;;-145.41;100.00;58600.66;4981928;28;20125;-72
2023/04/23 08:45:41;;;;;;;6.38;2.50;;;;;;;-145.41;100.00;58600.66;4981135;28;20569;-72
2023/04/23 08:48:08;;;;;;;7.63;2.47;;;;;;;-145.41;100.00;58600.66;4982083;28;20034;-72
2023/04/23 08:50:36;;;;;;;10.38;2.50;;;;;;;-145.41;100.00;58600.66;4980466;28;20039;-72
2023/04/23 08:53:03;;;;;;;5.22;2.58;;;;;;;-145.41;100.00;58600.66;4976848;28;20030;-72
2023/04/23 08:55:29;;;;;;;3.72;2.03;;;;;;;-145.41;100.00;58600.66;4983864;28;20076;-72
2023/04/23 08:57:57;;;;;;;3.85;2.17;;;;;;;-145.41;100.00;58600.66;4963685;28;20142;-72
2023/04/23 09:00:22;;;;;;;3.47;1.88;;;;;;;-145.41;100.00;58600.66;4982939;28;20038;-72
2023/04/23 09:02:48;;;;;;;5.32;1.92;;;;;;;-145.41;100.00;58600.66;4981407;28;20129;-72
2023/04/23 09:05:14;;;;;;;6.97;2.08;;;;;;;-145.41;100.00;58600.66;4981535;28;20043;-72
2023/04/23 09:07:40;;;;;;;4.07;1.90;;;;;;;-145.41;100.00;58600.66;4982630;28;20062;-71
2023/04/23 09:10:07;;;;;;;4.40;1.98;;;;;;;-145.41;100.00;58600.66;4981489;28;20090;-72
2023/04/23 09:12:40;;;;;;;5.70;1.90;;;;;;;-145.41;100.00;58600.66;4982189;28;20109;-72
2023/04/23 09:15:09;;;;;;;3.22;1.73;;;;;;;-145.41;100.00;58600.66;4982480;28;20034;-72
2023/04/23 09:17:38;;;;;;;5.68;2.10;;;;;;;-145.41;100.00;58600.66;4983564;28;20030;-72
2023/04/23 09:20:05;;;;;;;5.22;1.80;;;;;;;-145.41;100.00;58600.66;4976089;28;20047;-72
2023/04/23 09:22:47;;;;;;;4.47;1.85;;;;;;;-145.41;100.00;58600.66;4983442;28;20042;-72
2023/04/23 09:25:15;;;;;;;2.92;1.60;;;;;;;-145.41;100.00;58600.66;4982830;28;20043;-72
2023/04/23 09:27:40;;;;;;;3.50;1.80;;;;;;;-145.41;100.00;58600.66;4980687;28;20121;-72
2023/04/23 09:30:08;;;;;;;5.80;2.00;;;;;;;-145.41;100.00;58600.66;4982977;28;20130;-72
2023/04/23 09:32:35;;;;;;;4.57;1.58;;;;;;;-145.41;100.00;58600.66;4986817;28;20065;-71
2023/04/23 09:35:04;;;;;;;5.13;1.70;;;;;;;-145.41;100.00;58600.66;4984111;28;20046;-72
2023/04/23 09:37:31;;;;;;;3.15;1.73;;;;;;;-145.41;100.00;58600.66;4981299;28;20050;-72
2023/04/23 09:40:08;;;;;;;3.90;1.98;;;;;;;-145.41;100.00;58600.66;4986651;28;20034;-72
2023/04/23 09:42:34;;;;;;;3.80;1.70;;;;;;;-145.41;100.00;58600.66;4986013;28;20045;-72
2023/04/23 09:45:04;;;;;;;3.80;1.85;;;;;;;-145.41;100.00;58600.66;4986396;28;20042;-72
2023/04/23 09:47:40;;;;;;;4.22;1.60;;;;;;;-145.41;100.00;58600.66;4984394;28;20181;-72
2023/04/23 09:50:09;;;;;;;2.63;1.42;;;;;;;-145.41;100.00;58600.66;4981610;28;20038;-71
2023/04/23 09:52:38;;;;;;;2.45;1.40;;;;;;;-145.41;100.00;58600.66;4986910;28;20034;-72
2023/04/23 09:55:04;;;;;;;4.63;1.52;;;;;;;-145.41;100.00;58600.66;4985505;28;20042;-72
2023/04/23 09:57:35;;;;;;;2.33;1.52;;;;;;;-145.41;100.00;58600.66;4985670;28;20037;-72
2023/04/23 10:00:12;;;;;;;3.67;1.73;;;;;;;-145.41;100.00;58600.66;4984248;28;20041;-71
2023/04/23 10:02:38;;;;;;;5.78;1.88;;;;;;;-145.41;100.00;58600.66;4980902;28;20042;-72
2023/04/23 10:05:14;;;;;;;3.30;1.75;;;;;;;-145.41;100.00;58600.66;4983399;28;20043;-72
2023/04/23 10:07:39;;;;;;;3.53;1.67;;;;;;;-145.41;100.00;58600.66;4984892;28;20133;-71
2023/04/23 10:10:05;;;;;;;3.72;2.00;;;;;;;-145.41;100.00;58600.66;4985477;28;20162;-72
2023/04/23 10:12:31;;;;;;;3.90;2.10;;;;;;;-145.41;100.00;58600.66;4966029;28;20476;-72
2023/04/23 10:14:58;;;;;;;2.42;1.45;;;;;;;-145.41;100.00;58600.66;4984801;28;20038;-72
2023/04/23 10:17:23;;;;;;;2.40;1.20;;;;;;;-145.41;100.00;58600.66;4984110;28;20042;-72
2023/04/23 10:19:50;;;;;;;5.03;1.55;;;;;;;-145.41;100.00;58600.66;4986047;28;20064;-72
2023/04/23 10:22:18;;;;;;;5.28;1.27;;;;;;;-145.41;100.00;58600.66;4983580;28;20046;-72
2023/04/23 10:24:45;;;;;;;2.75;1.30;;;;;;;-145.41;100.00;58600.66;4986742;28;20038;-72
2023/04/23 10:27:14;;;;;;;2.78;1.10;;;;;;;-145.41;100.00;58600.66;4981253;28;20038;-72
2023/04/23 10:29:40;;;;;;;2.38;0.80;;;;;;;-145.41;100.00;58600.66;4986045;28;20053;-72
2023/04/23 10:32:06;;;;;;;4.15;1.20;;;;;;;-145.41;100.00;58600.66;4983946;28;20131;-72
2023/04/23 10:34:32;;;;;;;2.15;1.00;;;;;;;-145.41;100.00;58600.66;4985773;28;20114;-72
2023/04/23 10:36:59;;;;;;;2.15;1.00;;;;;;;-145.41;100.00;58600.66;4966975;28;20117;-71
2023/04/23 10:39:29;;;;;;;2.70;1.13;;;;;;;-145.41;100.00;58600.66;4982497;28;20038;-71
2023/04/23 10:41:55;;;;;;;2.10;1.10;;;;;;;-145.41;100.00;58600.66;4984809;28;20042;-72
2023/04/23 10:44:20;;;;;;;2.67;1.40;;;;;;;-145.41;100.00;58600.66;4981426;28;20408;-71
2023/04/23 10:46:56;;;;;;;3.20;1.30;;;;;;;-145.41;100.00;58600.66;4984152;28;20042;-72
2023/04/23 10:49:23;;;;;;;3.03;1.73;;;;;;;-145.41;100.00;58600.66;4982251;28;20054;-71
2023/04/23 10:51:57;;;;;;;3.22;1.75;;;;;;;-145.41;100.00;58600.66;4986057;28;20054;-71
2023/04/23 10:54:29;;;;;;;2.85;1.42;;;;;;;-145.41;100.00;58600.66;4983881;28;20535;-71
2023/04/23 10:56:58;;;;;;;4.30;2.45;;;;;;;-145.41;100.00;58600.66;4966657;28;20378;-71
2023/04/23 10:59:24;;;;;;;2.50;1.52;;;;;;;-145.41;100.00;58600.66;4985245;28;20065;-71
2023/04/23 11:01:50;;;;;;;2.10;1.40;;;;;;;-145.41;100.00;58600.66;4982808;28;20474;-71
2023/04/23 11:04:27;;;;;;;3.53;1.48;;;;;;;-145.41;100.00;58600.66;4985550;28;20121;-71